Lady Eman — 5IM513 — position and weather

sailwx.info

Track history (hours):
 
Tides and Currents Weather Stations Pressure Air Temp Water Temp Dewpoint Dewpoint Depression Visibility Wind Speed Wind Dir Waves Ship Positions

Lady Eman

Last reported at 2015-May-03 19:34 UTC. Time now 2015-May-23 14:58 UTC.
Position N 35°09' E 027°33'.
Warning: this ship's position is 19 days out of date.

Length 92 m; draft 7.2 m.

Type: Cargo ship. MMSI: 677041300.

Date/timePositionNaut miles runAvg speedWind from/ knotsBaromVisibWave heightAir tempDewpointWater temp
2015-May-03 19:34N 35°09' E 027°33'20 9.7
2015-May-03 17:33N 35°03' E 027°10'12 9.2
2015-May-03 16:15N 34°59' E 026°56'130 9.2
2015-May-03 02:05N 34°27' E 024°23'5 9.3
2015-May-03 01:33N 34°26' E 024°17'9 9.1
2015-May-03 00:32N 34°24' E 024°06'12 9.1
2015-May-02 23:13N 34°22' E 023°52'7 9.6
2015-May-02 22:30N 34°20' E 023°44'11 9.6
2015-May-02 21:24N 34°18' E 023°31'290 9.9
2015-May-01 16:05N 33°44' E 017°43'66 9.9
2015-May-01 09:25N 33°39' E 016°24'910.2
2015-May-01 08:30N 33°37' E 016°13'1010.2
2015-May-01 07:33N 33°36' E 016°01'20 9.9
2015-May-01 05:31N 33°33' E 015°37'92 9.0
2015-Apr-30 19:16N 33°17' E 013°49'7 7.9
2015-Apr-30 18:25N 33°15' E 013°41'7 7.7
2015-Apr-30 17:33N 33°13' E 013°33'26 2.0
2015-Apr-30 04:16N 32°54' E 013°12'0 0.0
2015-Apr-29 18:19N 32°54' E 013°12'0 0.0
2015-Apr-29 17:28N 32°54' E 013°12'0 0.0
2015-Apr-29 16:31N 32°54' E 013°12'0 0.0
2015-Apr-29 15:28N 32°54' E 013°12'  
2015-Apr-26 15:12N 32°54' E 013°12'0 0.0
2015-Apr-26 14:16N 32°54' E 013°12'0 0.0
2015-Apr-26 13:31N 32°54' E 013°12'0 0.0
2015-Apr-26 12:31N 32°54' E 013°12'0 0.0
2015-Apr-26 11:31N 32°54' E 013°12'  
Track history (hours):
 
Tides and Currents Weather Stations Pressure Air Temp Water Temp Dewpoint Dewpoint Depression Visibility Wind Speed Wind Dir Waves Ship Positions

Lady Eman

Last reported at 2015-May-03 19:34 UTC. Time now 2015-May-23 14:58 UTC.
Position N 35°09' E 027°33'.
Warning: this ship's position is 19 days out of date.

Length 92 m; draft 7.2 m.

Type: Cargo ship. MMSI: 677041300.

Date/timePositionNaut miles runAvg speedWind from/ knotsBaromVisibWave heightAir tempDewpointWater temp
2015-May-03 19:34N 35°09' E 027°33'20 9.7
2015-May-03 17:33N 35°03' E 027°10'12 9.2
2015-May-03 16:15N 34°59' E 026°56'130 9.2
2015-May-03 02:05N 34°27' E 024°23'5 9.3
2015-May-03 01:33N 34°26' E 024°17'9 9.1
2015-May-03 00:32N 34°24' E 024°06'12 9.1
2015-May-02 23:13N 34°22' E 023°52'7 9.6
2015-May-02 22:30N 34°20' E 023°44'11 9.6
2015-May-02 21:24N 34°18' E 023°31'290 9.9
2015-May-01 16:05N 33°44' E 017°43'66 9.9
2015-May-01 09:25N 33°39' E 016°24'910.2
2015-May-01 08:30N 33°37' E 016°13'1010.2
2015-May-01 07:33N 33°36' E 016°01'20 9.9
2015-May-01 05:31N 33°33' E 015°37'92 9.0
2015-Apr-30 19:16N 33°17' E 013°49'7 7.9
2015-Apr-30 18:25N 33°15' E 013°41'7 7.7
2015-Apr-30 17:33N 33°13' E 013°33'26 2.0
2015-Apr-30 04:16N 32°54' E 013°12'0 0.0
2015-Apr-29 18:19N 32°54' E 013°12'0 0.0
2015-Apr-29 17:28N 32°54' E 013°12'0 0.0
2015-Apr-29 16:31N 32°54' E 013°12'0 0.0
2015-Apr-29 15:28N 32°54' E 013°12'  
2015-Apr-26 15:12N 32°54' E 013°12'0 0.0
2015-Apr-26 14:16N 32°54' E 013°12'0 0.0
2015-Apr-26 13:31N 32°54' E 013°12'0 0.0
2015-Apr-26 12:31N 32°54' E 013°12'0 0.0
2015-Apr-26 11:31N 32°54' E 013°12'  

Dump ship's entire track history